createdAt,value
2023-02-21T00:02:38.553Z,100.00
2023-02-21T00:06:05.507Z,100.00
2023-02-21T00:08:52.796Z,100.00
2023-02-21T00:11:41.412Z,100.00
2023-02-21T00:14:53.770Z,100.00
2023-02-21T00:17:46.894Z,100.00
2023-02-21T00:24:52.198Z,100.00
2023-02-21T00:27:46.766Z,100.00
2023-02-21T00:30:46.700Z,100.00
2023-02-21T00:33:37.864Z,100.00
2023-02-21T00:36:28.832Z,100.00
2023-02-21T00:39:44.408Z,100.00
2023-02-21T00:43:03.906Z,100.00
2023-02-21T00:46:00.290Z,100.00
2023-02-21T00:53:01.647Z,100.00
2023-02-21T00:56:06.160Z,100.00
2023-02-21T01:03:49.990Z,100.00
2023-02-21T01:06:42.749Z,100.00
2023-02-21T01:09:48.511Z,100.00
2023-02-21T01:12:47.133Z,100.00
2023-02-21T01:15:52.481Z,100.00
2023-02-21T01:18:40.376Z,100.00
2023-02-21T01:25:05.478Z,100.00
2023-02-21T01:28:36.934Z,100.00
2023-02-21T01:31:50.504Z,100.00
2023-02-21T01:34:46.803Z,100.00
2023-02-21T01:37:48.302Z,100.00
2023-02-21T01:40:44.587Z,100.00
2023-02-21T01:43:53.691Z,100.00
2023-02-21T01:46:41.512Z,100.00
2023-02-21T01:49:36.521Z,100.00
2023-02-21T01:52:41.866Z,100.00
2023-02-21T01:55:51.493Z,100.00
2023-02-21T01:58:40.813Z,100.00
2023-02-21T02:02:06.468Z,100.00
2023-02-21T02:04:59.803Z,100.00
2023-02-21T02:07:58.170Z,100.00
2023-02-21T02:10:47.957Z,100.00
2023-02-21T02:13:56.832Z,100.00
2023-02-21T02:17:18.884Z,100.00
2023-02-21T02:20:29.537Z,100.00
2023-02-21T02:23:20.115Z,100.00
2023-02-21T02:26:19.867Z,100.00
2023-02-21T02:29:21.920Z,100.00
2023-02-21T02:31:53.509Z,100.00
2023-02-21T02:34:50.430Z,100.00
2023-02-21T02:37:58.856Z,100.00
2023-02-21T02:40:37.154Z,100.00
2023-02-21T02:43:42.946Z,100.00
2023-02-21T02:50:02.950Z,100.00
2023-02-21T02:52:55.989Z,100.00
2023-02-21T02:55:44.071Z,100.00
2023-02-21T02:58:19.317Z,100.00
2023-02-21T03:01:46.665Z,100.00
2023-02-21T03:05:16.636Z,100.00
2023-02-21T03:08:25.777Z,100.00
2023-02-21T03:11:05.401Z,100.00
2023-02-21T03:13:50.022Z,100.00
2023-02-21T03:16:46.133Z,100.00
2023-02-21T03:19:36.224Z,100.00
2023-02-21T03:22:21.960Z,100.00
2023-02-21T03:24:56.075Z,100.00
2023-02-21T03:27:34.148Z,100.00
2023-02-21T03:30:55.185Z,100.00
2023-02-21T03:33:32.848Z,100.00
2023-02-21T03:36:03.970Z,100.00
2023-02-21T03:40:09.909Z,100.00
2023-02-21T03:42:46.518Z,100.00
2023-02-21T03:45:23.033Z,100.00
2023-02-21T03:48:45.541Z,100.00
2023-02-21T03:51:31.353Z,100.00
2023-02-21T03:54:13.814Z,100.00
2023-02-21T03:57:30.614Z,99.88
2023-02-21T04:00:16.362Z,99.85
2023-02-21T04:03:02.472Z,99.70
2023-02-21T04:05:50.790Z,99.48
2023-02-21T04:08:33.897Z,99.91
2023-02-21T04:11:10.718Z,99.82
2023-02-21T04:13:49.534Z,99.84
2023-02-21T04:19:41.686Z,99.32
2023-02-21T04:22:18.930Z,98.82
2023-02-21T04:24:50.139Z,98.70
2023-02-21T04:27:28.701Z,98.62
2023-02-21T04:30:28.133Z,98.45
2023-02-21T04:33:48.303Z,98.64
2023-02-21T04:36:31.042Z,98.56
2023-02-21T04:39:10.889Z,98.41
2023-02-21T04:41:42.363Z,98.62
2023-02-21T04:44:26.772Z,98.36
2023-02-21T04:47:40.688Z,97.97
2023-02-21T04:50:27.311Z,98.14
2023-02-21T04:53:24.445Z,98.69
2023-02-21T04:56:14.127Z,98.67
2023-02-21T04:58:46.194Z,98.42
2023-02-21T05:01:20.775Z,97.98
2023-02-21T05:03:57.499Z,97.38
2023-02-21T05:06:48.432Z,97.14
2023-02-21T05:09:22.212Z,96.76
2023-02-21T05:12:29.377Z,96.91
2023-02-21T05:15:11.494Z,96.36
2023-02-21T05:17:45.684Z,96.01
2023-02-21T05:20:15.330Z,96.23
2023-02-21T05:22:49.470Z,95.60
2023-02-21T05:25:20.257Z,95.03
2023-02-21T05:27:54.160Z,94.39
2023-02-21T05:30:26.208Z,94.11
2023-02-21T05:33:04.670Z,92.93
2023-02-21T05:35:34.560Z,92.25
2023-02-21T05:38:08.184Z,92.36
2023-02-21T05:40:44.750Z,91.86
2023-02-21T05:43:27.444Z,92.06
2023-02-21T05:46:02.580Z,92.16
2023-02-21T05:48:33.309Z,91.86
2023-02-21T05:51:05.167Z,92.17
2023-02-21T05:53:39.286Z,91.58
2023-02-21T05:57:48.247Z,91.66
2023-02-21T06:00:29.144Z,91.71
2023-02-21T06:03:09.132Z,92.29
2023-02-21T06:05:40.155Z,91.63
2023-02-21T06:08:13.990Z,91.26
2023-02-21T06:10:44.695Z,90.30
2023-02-21T06:13:13.582Z,90.14
2023-02-21T06:15:43.663Z,90.63
2023-02-21T06:18:16.647Z,90.79
2023-02-21T06:20:51.764Z,91.07
2023-02-21T06:23:21.269Z,91.56
2023-02-21T06:25:51.093Z,91.04
2023-02-21T06:28:20.662Z,90.37
2023-02-21T06:30:52.991Z,89.66
2023-02-21T06:33:26.091Z,89.21
2023-02-21T06:36:13.987Z,88.58
2023-02-21T06:38:48.284Z,88.72
2023-02-21T06:41:24.751Z,88.38
2023-02-21T06:43:56.870Z,87.97
2023-02-21T06:46:28.395Z,88.44
2023-02-21T06:49:00.143Z,89.25
2023-02-21T06:51:31.379Z,87.74
2023-02-21T06:54:01.713Z,87.29
2023-02-21T06:56:31.929Z,86.45
2023-02-21T06:59:07.169Z,87.31
2023-02-21T07:01:46.049Z,87.68
2023-02-21T07:04:17.295Z,87.52
2023-02-21T07:06:47.472Z,86.69
2023-02-21T07:09:16.763Z,86.33
2023-02-21T07:11:48.796Z,86.59
2023-02-21T07:14:21.725Z,85.91
2023-02-21T07:16:56.642Z,86.90
2023-02-21T07:19:30.592Z,86.36
2023-02-21T07:22:13.469Z,85.12
2023-02-21T07:24:42.272Z,83.48
2023-02-21T07:27:10.814Z,83.61
2023-02-21T07:29:41.371Z,83.85
2023-02-21T07:32:12.149Z,84.36
2023-02-21T07:34:40.688Z,82.99
2023-02-21T07:37:09.434Z,82.59
2023-02-21T07:39:49.166Z,82.94
2023-02-21T07:42:20.275Z,82.02
2023-02-21T07:44:49.364Z,80.43
2023-02-21T07:47:23.512Z,80.66
2023-02-21T07:49:55.350Z,80.25
2023-02-21T07:52:28.012Z,80.30
2023-02-21T07:54:57.010Z,79.95
2023-02-21T07:57:26.107Z,79.58
2023-02-21T07:59:54.795Z,79.52
2023-02-21T08:02:32.392Z,79.25
2023-02-21T08:05:06.860Z,77.42
2023-02-21T08:07:48.632Z,76.88
2023-02-21T08:10:24.672Z,76.63
2023-02-21T08:12:57.655Z,76.02
2023-02-21T08:15:26.644Z,76.52
2023-02-21T08:18:00.252Z,76.56
2023-02-21T08:20:29.758Z,75.28
2023-02-21T08:23:01.718Z,74.03
2023-02-21T08:25:34.493Z,74.59
2023-02-21T08:28:08.987Z,74.15
2023-02-21T08:30:39.604Z,74.61
2023-02-21T08:33:10.196Z,75.28
2023-02-21T08:35:39.067Z,75.51
2023-02-21T08:38:11.047Z,73.79
2023-02-21T08:40:41.900Z,73.35
2023-02-21T08:43:10.553Z,73.20
2023-02-21T08:45:40.472Z,72.31
2023-02-21T08:48:09.054Z,71.94
2023-02-21T08:50:37.766Z,71.99
2023-02-21T08:53:07.042Z,72.33
2023-02-21T08:55:36.753Z,72.48
2023-02-21T08:58:07.487Z,72.68
2023-02-21T09:00:38.136Z,71.96
2023-02-21T09:03:47.254Z,71.39
2023-02-21T09:06:37.859Z,72.00
2023-02-21T09:09:31.141Z,71.70
2023-02-21T09:12:34.527Z,71.06
2023-02-21T09:15:35.767Z,71.35
2023-02-21T09:18:30.361Z,72.10
2023-02-21T09:21:03.255Z,72.22
2023-02-21T09:24:16.903Z,72.17
2023-02-21T09:27:09.026Z,71.20
2023-02-21T09:30:05.341Z,71.85
2023-02-21T09:33:22.888Z,71.23
2023-02-21T09:36:38.071Z,71.56
2023-02-21T09:39:41.678Z,72.58
2023-02-21T09:42:53.703Z,71.73
2023-02-21T09:46:18.785Z,71.20
2023-02-21T09:49:32.431Z,70.83
2023-02-21T09:52:08.794Z,70.30
2023-02-21T09:54:57.653Z,70.53
2023-02-21T09:58:15.719Z,70.63
2023-02-21T10:00:54.633Z,71.76
2023-02-21T10:04:37.712Z,71.02
2023-02-21T10:07:38.388Z,70.44
2023-02-21T10:10:10.759Z,70.85
2023-02-21T10:13:23.283Z,72.62
2023-02-21T10:17:18.802Z,74.11
2023-02-21T10:20:59.375Z,76.29
2023-02-21T10:24:05.739Z,78.44
2023-02-21T10:27:12.497Z,80.82
2023-02-21T10:30:16.079Z,82.97
2023-02-21T10:33:17.375Z,84.44
2023-02-21T10:35:47.553Z,85.74
2023-02-21T10:38:58.025Z,86.36
2023-02-21T10:41:35.146Z,87.40
2023-02-21T10:45:31.855Z,87.99
2023-02-21T10:48:50.651Z,88.94
2023-02-21T10:52:23.622Z,88.82
2023-02-21T10:55:47.981Z,88.87
2023-02-21T10:58:38.827Z,88.75
2023-02-21T11:01:39.241Z,89.20
2023-02-21T11:05:08.279Z,89.35
2023-02-21T11:08:17.421Z,89.73
2023-02-21T11:11:43.702Z,89.30
2023-02-21T11:15:05.935Z,88.89
2023-02-21T11:17:43.452Z,89.78
2023-02-21T11:21:02.922Z,89.84
2023-02-21T11:24:07.065Z,89.41
2023-02-21T11:27:16.142Z,89.12
2023-02-21T11:30:11.932Z,88.68
2023-02-21T11:33:41.107Z,87.49
2023-02-21T11:37:04.992Z,86.28
2023-02-21T11:40:20.884Z,85.61
2023-02-21T11:43:52.839Z,83.59
2023-02-21T11:46:48.181Z,83.53
2023-02-21T11:50:05.255Z,82.93
2023-02-21T11:53:02.093Z,81.66
2023-02-21T11:56:00.510Z,82.18
2023-02-21T11:59:20.711Z,81.03
2023-02-21T12:02:38.639Z,79.62
2023-02-21T12:06:11.657Z,81.10
2023-02-21T12:09:58.138Z,79.91
2023-02-21T12:12:51.863Z,79.56
2023-02-21T12:16:06.785Z,77.40
2023-02-21T12:18:48.393Z,76.59
2023-02-21T12:22:05.661Z,74.24
2023-02-21T12:25:15.981Z,73.00
2023-02-21T12:29:01.786Z,71.97
2023-02-21T12:32:11.698Z,69.06
2023-02-21T12:35:36.957Z,67.98
2023-02-21T12:38:49.392Z,65.05
2023-02-21T12:42:41.437Z,64.09
2023-02-21T12:46:26.189Z,62.57
2023-02-21T12:49:17.364Z,61.44
2023-02-21T12:52:49.400Z,60.52
2023-02-21T12:55:33.950Z,59.85
2023-02-21T12:59:39.718Z,59.09
2023-02-21T13:02:51.012Z,59.49
2023-02-21T13:06:16.928Z,60.48
2023-02-21T13:10:03.635Z,62.14
2023-02-21T13:13:05.732Z,63.31
2023-02-21T13:15:55.238Z,64.05
2023-02-21T13:19:05.585Z,64.06
2023-02-21T13:22:36.502Z,62.98
2023-02-21T13:25:37.858Z,62.22
2023-02-21T13:28:28.554Z,62.93
2023-02-21T13:39:36.763Z,68.62
2023-02-21T13:42:26.138Z,70.53
2023-02-21T13:45:41.163Z,73.50
2023-02-21T13:48:26.825Z,75.46
2023-02-21T13:51:55.624Z,76.29
2023-02-21T13:54:51.442Z,76.65
2023-02-21T13:57:37.778Z,77.23
2023-02-21T14:01:35.383Z,77.14
2023-02-21T14:04:58.894Z,77.11
2023-02-21T14:08:12.029Z,76.41
2023-02-21T14:11:04.351Z,75.95
2023-02-21T14:14:09.704Z,74.92
2023-02-21T14:17:09.012Z,72.84
2023-02-21T14:24:18.095Z,72.11
2023-02-21T14:27:18.041Z,71.42
2023-02-21T14:30:21.419Z,69.44
2023-02-21T14:33:25.926Z,69.14
2023-02-21T14:36:16.932Z,67.67
2023-02-21T14:38:54.793Z,68.01
2023-02-21T14:42:20.813Z,68.55
2023-02-21T14:45:30.800Z,68.19
2023-02-21T14:48:20.305Z,68.69
2023-02-21T14:51:20.923Z,69.13
2023-02-21T14:54:37.514Z,69.17
2023-02-21T14:57:54.870Z,70.32
2023-02-21T15:00:54.843Z,70.75
2023-02-21T15:03:29.140Z,71.09
2023-02-21T15:06:12.835Z,71.40
2023-02-21T15:08:53.324Z,71.53
2023-02-21T15:11:34.072Z,71.73
2023-02-21T15:14:25.654Z,71.88
2023-02-21T15:20:10.846Z,73.53
2023-02-21T15:22:46.337Z,73.84
2023-02-21T15:25:21.257Z,74.21
2023-02-21T15:28:05.295Z,74.78
2023-02-21T15:30:43.464Z,75.38
2023-02-21T15:33:21.584Z,75.11
2023-02-21T15:36:06.089Z,75.15
2023-02-21T15:38:52.942Z,75.42
2023-02-21T15:42:04.321Z,75.37
2023-02-21T15:44:48.759Z,76.70
2023-02-21T15:47:22.559Z,79.47
2023-02-21T15:50:16.959Z,81.75
2023-02-21T15:53:29.211Z,85.35
2023-02-21T15:56:42.859Z,88.13
2023-02-21T15:59:50.436Z,90.76
2023-02-21T16:02:27.737Z,92.68
2023-02-21T16:05:30.623Z,93.49
2023-02-21T16:08:35.449Z,94.60
2023-02-21T16:11:19.577Z,95.27
2023-02-21T16:14:04.638Z,95.57
2023-02-21T16:17:27.726Z,96.21
2023-02-21T16:20:33.382Z,96.30
2023-02-21T16:23:24.797Z,96.75
2023-02-21T16:26:14.940Z,96.64
2023-02-21T16:29:36.917Z,96.73
2023-02-21T16:32:51.472Z,96.34
2023-02-21T16:35:25.719Z,96.64
2023-02-21T16:37:58.606Z,96.71
2023-02-21T16:40:55.773Z,97.23
2023-02-21T16:43:54.598Z,97.15
2023-02-21T16:49:38.702Z,97.06
2023-02-21T16:56:07.345Z,96.93
2023-02-21T16:59:00.573Z,97.00
2023-02-21T17:02:19.605Z,97.24
2023-02-21T17:05:03.581Z,97.14
2023-02-21T17:07:42.977Z,97.55
2023-02-21T17:10:32.307Z,97.99
2023-02-21T17:13:03.936Z,98.30
2023-02-21T17:15:33.982Z,98.39
2023-02-21T17:18:05.322Z,98.29
2023-02-21T17:21:09.996Z,98.12
2023-02-21T17:23:48.150Z,98.67
2023-02-21T17:26:17.567Z,98.65
2023-02-21T17:29:21.882Z,98.52
2023-02-21T17:31:59.076Z,97.81
2023-02-21T17:34:39.384Z,97.73
2023-02-21T17:37:12.142Z,97.42
2023-02-21T17:39:41.156Z,97.09
2023-02-21T17:42:10.600Z,97.18
2023-02-21T17:44:49.964Z,97.33
2023-02-21T17:47:38.708Z,97.11
2023-02-21T17:50:09.630Z,97.58
2023-02-21T17:58:47.580Z,98.07
2023-02-21T18:04:48.929Z,98.02
2023-02-21T18:07:21.193Z,98.49
2023-02-21T18:10:10.996Z,98.56
2023-02-21T18:12:51.290Z,98.54
2023-02-21T18:16:50.225Z,99.18
2023-02-21T18:19:34.188Z,98.94
2023-02-21T18:22:12.906Z,99.15
2023-02-21T18:24:55.608Z,99.48
2023-02-21T18:27:25.720Z,99.67
2023-02-21T18:29:56.496Z,99.48
2023-02-21T18:32:54.366Z,99.39
2023-02-21T18:35:28.398Z,99.48
2023-02-21T18:38:13.450Z,99.35
2023-02-21T18:41:12.078Z,99.44
2023-02-21T18:44:03.736Z,99.01
2023-02-21T18:46:38.794Z,98.79
2023-02-21T18:49:47.222Z,98.55
2023-02-21T18:52:22.062Z,98.23
2023-02-21T18:54:57.112Z,98.13
2023-02-21T18:57:32.392Z,98.49
2023-02-21T19:00:11.094Z,97.86
2023-02-21T19:03:06.679Z,97.84
2023-02-21T19:09:57.226Z,97.27
2023-02-21T19:12:53.420Z,97.70
2023-02-21T19:15:44.440Z,97.31
2023-02-21T19:19:05.614Z,97.28
2023-02-21T19:21:50.737Z,97.18
2023-02-21T19:24:43.171Z,97.40
2023-02-21T19:27:47.086Z,96.83
2023-02-21T19:30:35.761Z,96.52
2023-02-21T19:33:12.827Z,96.32
2023-02-21T19:35:46.724Z,96.16
2023-02-21T19:38:40.394Z,96.44
2023-02-21T19:41:21.779Z,96.67
2023-02-21T19:43:52.455Z,96.65
2023-02-21T19:46:29.838Z,95.90
2023-02-21T19:49:14.876Z,95.46
2023-02-21T19:52:30.867Z,95.16
2023-02-21T19:55:04.878Z,95.50
2023-02-21T19:58:22.144Z,95.47
2023-02-21T20:01:35.528Z,95.02
2023-02-21T20:04:26.859Z,94.55
2023-02-21T20:07:08.230Z,93.40
2023-02-21T20:09:56.677Z,93.92
2023-02-21T20:13:09.219Z,94.29
2023-02-21T20:16:22.854Z,93.90
2023-02-21T20:19:47.521Z,93.66
2023-02-21T20:23:23.877Z,94.40
2023-02-21T20:26:04.463Z,93.96
2023-02-21T20:29:04.353Z,93.80
2023-02-21T20:32:11.199Z,93.97
2023-02-21T20:34:46.926Z,94.11
2023-02-21T20:38:21.105Z,94.10
2023-02-21T20:41:23.995Z,94.13
2023-02-21T20:44:30.230Z,94.54
2023-02-21T20:47:36.436Z,94.82
2023-02-21T20:50:20.818Z,95.03
2023-02-21T20:53:48.336Z,95.34
2023-02-21T20:56:45.466Z,96.12
2023-02-21T20:59:57.199Z,96.41
2023-02-21T21:03:07.822Z,97.34
2023-02-21T21:06:11.975Z,97.91
2023-02-21T21:09:34.647Z,97.78
2023-02-21T21:12:29.535Z,98.31
2023-02-21T21:15:12.550Z,98.60
2023-02-21T21:17:57.069Z,98.78
2023-02-21T21:20:41.166Z,98.79
2023-02-21T21:23:14.275Z,98.42
2023-02-21T21:26:22.310Z,98.56
2023-02-21T21:29:25.169Z,98.47
2023-02-21T21:32:10.855Z,98.34
2023-02-21T21:35:15.248Z,98.74
2023-02-21T21:38:27.207Z,98.78
2023-02-21T21:41:23.487Z,98.81
2023-02-21T21:44:02.867Z,99.00
2023-02-21T21:47:02.436Z,99.07
2023-02-21T21:49:55.561Z,99.24
2023-02-21T21:53:11.437Z,98.77
2023-02-21T21:56:20.280Z,98.59
2023-02-21T21:59:27.348Z,98.61
2023-02-21T22:02:22.935Z,98.84
2023-02-21T22:05:30.564Z,98.96
2023-02-21T22:08:21.273Z,99.04
2023-02-21T22:11:10.866Z,99.24
2023-02-21T22:13:47.112Z,99.21
2023-02-21T22:16:25.127Z,99.49
2023-02-21T22:19:16.022Z,99.60
2023-02-21T22:22:02.608Z,99.68
2023-02-21T22:25:12.330Z,99.82
2023-02-21T22:28:34.418Z,99.91
2023-02-21T22:31:24.101Z,99.82
2023-02-21T22:34:05.167Z,99.77
2023-02-21T22:37:15.546Z,99.88
2023-02-21T22:40:05.572Z,99.75
2023-02-21T22:43:42.501Z,99.70
2023-02-21T22:47:00.856Z,99.81
2023-02-21T22:49:37.987Z,99.64
2023-02-21T22:52:29.664Z,99.32
2023-02-21T22:55:37.266Z,99.10
2023-02-21T22:58:30.781Z,98.74
2023-02-21T23:01:13.079Z,98.78
2023-02-21T23:04:26.157Z,98.18
2023-02-21T23:07:04.909Z,97.72
2023-02-21T23:09:43.885Z,97.49
2023-02-21T23:12:30.306Z,97.89
2023-02-21T23:15:18.577Z,97.63
2023-02-21T23:18:20.896Z,97.33
2023-02-21T23:21:16.086Z,96.96
2023-02-21T23:23:53.247Z,96.82
2023-02-21T23:26:35.455Z,96.02
2023-02-21T23:29:58.473Z,95.36
2023-02-21T23:32:50.957Z,95.14
2023-02-21T23:36:24.145Z,94.05
2023-02-21T23:38:58.699Z,93.47
2023-02-21T23:41:34.650Z,93.77
2023-02-21T23:44:51.415Z,93.11
2023-02-21T23:47:55.516Z,93.24
2023-02-21T23:50:37.463Z,92.93
2023-02-21T23:53:32.440Z,93.26
2023-02-21T23:56:07.621Z,92.81
2023-02-21T23:59:46.273Z,93.01
